createdAt,value
2022-08-05T00:00:06.178Z,25.30
2022-08-05T00:06:51.799Z,25.40
2022-08-05T00:13:39.084Z,25.50
2022-08-05T00:20:22.319Z,25.60
2022-08-05T00:27:16.518Z,25.30
2022-08-05T00:34:53.219Z,24.90
2022-08-05T00:41:02.713Z,25.10
2022-08-05T00:47:57.018Z,25.10
2022-08-05T00:54:49.797Z,25.20
2022-08-05T01:01:42.526Z,24.90
2022-08-05T01:08:43.344Z,24.60
2022-08-05T01:15:36.828Z,24.50
2022-08-05T01:22:35.381Z,24.90
2022-08-05T01:29:24.696Z,25.20
2022-08-05T01:36:16.724Z,25.40
2022-08-05T01:43:22.133Z,25.50
2022-08-05T01:50:18.878Z,25.50
2022-08-05T01:58:09.431Z,25.50
2022-08-05T02:04:18.689Z,25.30
2022-08-05T02:11:12.606Z,25.20
2022-08-05T02:18:30.569Z,25.20
2022-08-05T02:25:23.238Z,25.10
2022-08-05T02:32:12.177Z,25.00
2022-08-05T02:39:13.254Z,25.00
2022-08-05T02:46:01.074Z,24.90
2022-08-05T02:52:47.482Z,24.80
2022-08-05T02:59:47.725Z,24.70
2022-08-05T03:06:54.300Z,24.60
2022-08-05T03:13:51.694Z,24.60
2022-08-05T03:20:44.641Z,24.50
2022-08-05T03:27:39.237Z,24.40
2022-08-05T03:34:38.059Z,24.30
2022-08-05T03:41:24.710Z,24.30
2022-08-05T03:48:10.405Z,24.30
2022-08-05T03:56:01.437Z,24.30
2022-08-05T04:02:04.446Z,24.20
2022-08-05T04:08:48.674Z,24.10
2022-08-05T04:15:32.728Z,24.10
2022-08-05T04:22:15.760Z,24.00
2022-08-05T04:29:07.137Z,24.00
2022-08-05T04:36:11.358Z,24.00
2022-08-05T04:42:52.220Z,24.10
2022-08-05T04:50:01.162Z,24.00
2022-08-05T04:56:37.541Z,23.90
2022-08-05T05:03:20.522Z,24.00
2022-08-05T05:10:06.263Z,24.00
2022-08-05T05:16:50.592Z,24.20
2022-08-05T05:23:39.041Z,24.50
2022-08-05T05:30:35.513Z,26.40
2022-08-05T05:37:17.886Z,29.00
2022-08-05T05:44:00.818Z,30.20
2022-08-05T05:50:44.399Z,31.30
2022-08-05T05:57:42.648Z,32.30
2022-08-05T06:04:26.198Z,33.40
2022-08-05T06:11:09.000Z,33.90
2022-08-05T06:17:55.759Z,34.10
2022-08-05T06:24:48.181Z,33.80
2022-08-05T06:31:32.226Z,34.50
2022-08-05T06:38:16.005Z,35.80
2022-08-05T06:44:58.501Z,36.10
2022-08-05T06:51:40.990Z,34.30
2022-08-05T06:58:35.094Z,35.50
2022-08-05T07:05:21.361Z,37.50
2022-08-05T07:12:06.078Z,38.30
2022-08-05T07:18:49.110Z,34.10
2022-08-05T07:25:56.288Z,35.20
2022-08-05T07:32:37.877Z,38.40
2022-08-05T07:39:24.748Z,39.50
2022-08-05T07:46:25.001Z,37.40
2022-08-05T07:53:09.052Z,36.50
2022-08-05T07:59:55.634Z,38.60
2022-08-05T08:06:38.309Z,39.60
2022-08-05T08:13:28.809Z,39.30
2022-08-05T08:20:42.898Z,40.20
2022-08-05T08:27:16.635Z,39.70
2022-08-05T08:33:59.107Z,39.20
2022-08-05T08:40:45.687Z,39.30
2022-08-05T08:48:06.297Z,38.10
2022-08-05T08:54:38.045Z,39.30
2022-08-05T09:01:24.916Z,38.80
2022-08-05T09:08:09.863Z,39.50
2022-08-05T09:14:59.580Z,37.20
2022-08-05T09:22:22.561Z,37.10
2022-08-05T09:28:59.155Z,38.90
2022-08-05T09:36:11.617Z,40.80
2022-08-05T09:42:59.060Z,38.80
2022-08-05T09:50:01.695Z,40.10
2022-08-05T09:56:51.770Z,39.70
2022-08-05T10:03:56.520Z,39.10
2022-08-05T10:10:44.133Z,41.10
2022-08-05T10:17:37.268Z,41.60
2022-08-05T10:24:24.970Z,41.50
2022-08-05T10:32:49.649Z,42.30
2022-08-05T10:38:15.163Z,42.60
2022-08-05T10:44:58.322Z,41.50
2022-08-05T10:51:53.132Z,41.50
2022-08-05T10:59:07.230Z,39.40
2022-08-05T11:06:08.366Z,37.00
2022-08-05T11:12:58.346Z,36.00
2022-08-05T11:20:11.016Z,34.90
2022-08-05T11:27:50.164Z,34.40
2022-08-05T11:34:37.899Z,34.00
2022-08-05T11:42:00.786Z,34.20
2022-08-05T11:48:44.509Z,33.80
2022-08-05T12:38:59.558Z,34.80
2022-08-05T12:45:56.213Z,34.70
2022-08-05T12:52:42.386Z,34.80
2022-08-05T13:01:59.712Z,34.40
2022-08-05T13:06:58.512Z,34.70
2022-08-05T13:14:04.608Z,34.40
2022-08-05T13:20:44.748Z,35.00
2022-08-05T13:27:37.929Z,35.40
2022-08-05T13:34:25.985Z,35.80
2022-08-05T13:41:08.726Z,35.80
2022-08-05T13:48:09.631Z,35.70
2022-08-05T13:54:54.053Z,35.80
2022-08-05T14:01:46.491Z,34.60
2022-08-05T14:08:39.658Z,33.80
2022-08-05T14:16:08.602Z,34.00
2022-08-05T14:22:24.896Z,33.60
2022-08-05T14:29:16.206Z,33.50
2022-08-05T14:36:00.168Z,32.90
2022-08-05T14:42:44.735Z,32.50
2022-08-05T14:49:56.430Z,32.40
2022-08-05T14:56:30.635Z,32.30
2022-08-05T15:03:13.222Z,31.20
2022-08-05T15:09:56.088Z,31.10
2022-08-05T15:16:39.154Z,31.10
2022-08-05T15:23:22.810Z,31.10
2022-08-05T15:30:05.753Z,31.10
2022-08-05T15:36:48.131Z,29.80
2022-08-05T15:43:30.547Z,29.60
2022-08-05T15:50:28.632Z,29.60
2022-08-05T15:57:12.410Z,29.50
2022-08-05T16:03:55.301Z,29.60
2022-08-05T16:10:38.083Z,29.60
2022-08-05T16:17:24.329Z,29.50
2022-08-05T16:24:39.970Z,29.50
2022-08-05T16:31:24.699Z,29.80
2022-08-05T16:38:15.156Z,29.50
2022-08-05T16:44:59.056Z,29.50
2022-08-05T16:51:50.423Z,29.30
2022-08-05T16:58:33.997Z,29.30
2022-08-05T17:05:17.670Z,28.90
2022-08-05T17:12:03.473Z,28.50
2022-08-05T17:18:46.833Z,28.20
2022-08-05T17:25:40.134Z,28.00
2022-08-05T17:32:23.784Z,27.90
2022-08-05T17:39:24.500Z,27.80
2022-08-05T17:46:10.817Z,27.70
2022-08-05T17:52:55.077Z,27.60
2022-08-05T17:59:40.071Z,27.50
2022-08-05T18:06:29.516Z,27.40
2022-08-05T18:13:13.745Z,27.10
2022-08-05T18:19:56.144Z,26.90
2022-08-05T18:26:40.554Z,26.80
2022-08-05T18:33:24.304Z,26.50
2022-08-05T18:41:50.639Z,26.20
2022-08-05T18:47:10.046Z,26.10
2022-08-05T18:53:54.783Z,26.10
2022-08-05T19:00:37.286Z,25.90
2022-08-05T19:07:19.920Z,25.80
2022-08-05T19:14:15.268Z,25.60
2022-08-05T19:21:04.956Z,25.40
2022-08-05T19:27:49.792Z,25.30
2022-08-05T19:34:34.554Z,25.10
2022-08-05T19:41:17.513Z,25.80
2022-08-05T19:48:05.781Z,24.90
2022-08-05T19:54:48.377Z,24.90
2022-08-05T20:01:31.944Z,24.80
2022-08-05T20:08:16.883Z,24.50
2022-08-05T20:14:59.363Z,24.20
2022-08-05T20:28:27.047Z,23.50
2022-08-05T20:35:09.500Z,23.20
2022-08-05T20:41:54.217Z,22.80
2022-08-05T20:48:42.773Z,22.30
2022-08-05T20:56:07.309Z,22.50
2022-08-05T21:02:27.675Z,22.50
2022-08-05T21:09:11.266Z,22.20
2022-08-05T21:15:56.613Z,21.90
2022-08-05T21:22:40.364Z,21.90
2022-08-05T21:29:23.405Z,22.00
2022-08-05T21:36:09.050Z,21.80
2022-08-05T21:42:53.941Z,22.00
2022-08-05T21:49:48.474Z,22.30
2022-08-05T21:56:44.543Z,22.20
2022-08-05T22:03:52.067Z,21.80
2022-08-05T22:10:35.323Z,21.70
2022-08-05T22:17:18.116Z,21.80
2022-08-05T22:24:40.004Z,21.70
2022-08-05T22:31:21.308Z,21.60
2022-08-05T22:38:04.796Z,21.60
2022-08-05T22:44:56.233Z,21.70
2022-08-05T22:52:05.658Z,21.70
2022-08-05T22:58:43.766Z,21.60
2022-08-05T23:05:26.344Z,21.50
2022-08-05T23:12:09.420Z,21.50
2022-08-05T23:18:53.319Z,21.60
2022-08-05T23:25:52.817Z,21.60
2022-08-05T23:32:36.204Z,21.50
2022-08-05T23:39:31.901Z,21.50
2022-08-05T23:46:28.768Z,21.40
2022-08-05T23:53:22.649Z,21.50
